Time;durP1;ratioP1;P1;durP2;ratioP2;P2;SDS_P1;SDS_P2;PMS_P1;PMS_P2;Temp;Humidity;BMP_temperature;BMP_pressure;BME280_temperature;BME280_humidity;BME280_pressure;Samples;Min_cycle;Max_cycle;Signal;HPM_P1;HPM_P2
2020/12/24 00:00:00;;;;;;;0.50;0.30;;;11.30;99.90;;;;;;4952998;28;20385;-77
2020/12/24 00:02:26;;;;;;;0.50;0.40;;;11.10;99.90;;;;;;4952080;28;20453;-78
2020/12/24 00:04:51;;;;;;;0.80;0.40;;;11.70;99.90;;;;;;4952397;28;20928;-78
2020/12/24 00:07:17;;;;;;;1.57;0.50;;;11.30;99.90;;;;;;4952256;28;20393;-78
2020/12/24 00:09:45;;;;;;;0.73;0.40;;;11.10;99.90;;;;;;4955944;28;20395;-80
2020/12/24 00:12:14;;;;;;;0.60;0.40;;;10.90;99.90;;;;;;4972098;28;20432;-81
2020/12/24 00:14:40;;;;;;;1.20;0.45;;;10.70;99.90;;;;;;4970847;28;20393;-76
2020/12/24 00:17:06;;;;;;;1.20;0.50;;;10.90;99.90;;;;;;4971481;28;20520;-79
2020/12/24 00:19:32;;;;;;;0.68;0.50;;;11.40;99.90;;;;;;4970888;28;20841;-79
2020/12/24 00:21:57;;;;;;;0.60;0.40;;;10.50;99.90;;;;;;4971640;28;20427;-79
2020/12/24 00:24:23;;;;;;;0.80;0.40;;;11.40;99.90;;;;;;4969497;28;20407;-79
2020/12/24 00:26:48;;;;;;;0.60;0.40;;;11.10;99.90;;;;;;4971431;28;20388;-78
2020/12/24 00:29:14;;;;;;;0.60;0.30;;;11.00;99.90;;;;;;4971171;28;20463;-76
2020/12/24 00:31:40;;;;;;;0.50;0.30;;;10.80;99.90;;;;;;4970610;28;20463;-79
2020/12/24 00:34:06;;;;;;;0.40;0.30;;;11.10;99.90;;;;;;4970937;28;20466;-78
2020/12/24 00:36:33;;;;;;;0.40;0.30;;;10.00;99.90;;;;;;4974335;28;20389;-80
2020/12/24 00:38:59;;;;;;;0.57;0.30;;;9.60;99.90;;;;;;4974402;28;20498;-78
2020/12/24 00:41:25;;;;;;;0.80;0.30;;;10.40;99.90;;;;;;4974242;28;20403;-79
2020/12/24 00:43:51;;;;;;;0.50;0.30;;;10.30;99.90;;;;;;4974831;28;20404;-82
2020/12/24 00:46:17;;;;;;;0.40;0.30;;;10.30;99.90;;;;;;4975024;28;20528;-79
2020/12/24 00:48:43;;;;;;;1.80;0.60;;;10.00;99.90;;;;;;4973777;28;20891;-78
2020/12/24 00:51:09;;;;;;;0.80;0.40;;;10.30;99.90;;;;;;4973587;28;20392;-76
2020/12/24 00:53:34;;;;;;;0.70;0.30;;;10.30;99.90;;;;;;4973769;28;20730;-76
2020/12/24 00:56:00;;;;;;;0.50;0.30;;;10.30;99.90;;;;;;4974542;28;20388;-77
2020/12/24 00:58:26;;;;;;;0.40;0.30;;;10.50;99.90;;;;;;4973692;28;20468;-78
2020/12/24 01:00:51;;;;;;;0.80;0.30;;;10.50;99.90;;;;;;4974603;28;20384;-75
2020/12/24 01:03:17;;;;;;;1.80;0.40;;;9.80;99.90;;;;;;4974452;28;20398;-79
2020/12/24 01:05:43;;;;;;;0.60;0.30;;;9.60;99.90;;;;;;4956483;28;20405;-79
2020/12/24 01:08:08;;;;;;;0.70;0.40;;;10.40;99.90;;;;;;4974543;28;20781;-81
2020/12/24 01:10:34;;;;;;;0.50;0.30;;;9.70;99.90;;;;;;4961461;28;20409;-80
2020/12/24 01:13:00;;;;;;;1.75;0.30;;;9.80;99.90;;;;;;4969989;28;20414;-80
2020/12/24 01:15:25;;;;;;;1.00;0.30;;;9.90;99.90;;;;;;4954397;28;20440;-80
2020/12/24 01:17:51;;;;;;;1.10;0.40;;;9.90;99.90;;;;;;4955183;28;20783;-81
2020/12/24 01:20:16;;;;;;;0.60;0.30;;;9.90;99.90;;;;;;4955021;28;20394;-82
2020/12/24 01:22:42;;;;;;;2.00;0.40;;;9.30;99.90;;;;;;4954018;28;20452;-82
2020/12/24 01:25:08;;;;;;;1.57;0.40;;;9.00;99.90;;;;;;4954976;28;20747;-83
2020/12/24 01:27:33;;;;;;;0.70;0.30;;;9.10;99.90;;;;;;4954064;28;20414;-82
2020/12/24 01:30:00;;;;;;;1.40;0.30;;;9.60;99.90;;;;;;4954408;28;20386;-82
2020/12/24 01:32:26;;;;;;;0.47;0.30;;;9.50;99.90;;;;;;4953637;28;20455;-80
2020/12/24 01:34:51;;;;;;;1.10;0.40;;;9.70;99.90;;;;;;4954664;28;20382;-80
2020/12/24 01:37:17;;;;;;;1.27;0.40;;;9.00;99.90;;;;;;4954827;28;20886;-82
2020/12/24 01:39:43;;;;;;;0.60;0.60;;;9.30;99.90;;;;;;4953730;28;20725;-81
2020/12/24 01:42:09;;;;;;;1.00;0.40;;;9.30;99.90;;;;;;4954660;28;20743;-83
2020/12/24 01:44:34;;;;;;;1.60;0.40;;;10.30;99.90;;;;;;4953677;28;20406;-81
2020/12/24 01:47:00;;;;;;;0.60;0.30;;;8.90;99.90;;;;;;4953734;28;20386;-81
2020/12/24 01:49:26;;;;;;;1.40;0.50;;;9.80;99.90;;;;;;4953657;28;20813;-79
2020/12/24 01:51:58;;;;;;;0.90;0.40;;;9.20;99.90;;;;;;4954237;28;20386;-77
2020/12/24 01:54:25;;;;;;;0.50;0.40;;;9.50;99.90;;;;;;4968478;28;20409;-77
2020/12/24 01:56:51;;;;;;;0.50;0.30;;;9.10;99.90;;;;;;4952834;29;20396;-78
2020/12/24 01:59:18;;;;;;;0.40;0.30;;;9.40;99.90;;;;;;4954118;29;20882;-78
2020/12/24 02:01:49;;;;;;;1.70;0.50;;;10.40;99.90;;;;;;4953206;28;20968;-78
2020/12/24 02:04:15;;;;;;;0.57;0.30;;;9.00;99.90;;;;;;4954055;28;20739;-78
2020/12/24 02:06:42;;;;;;;0.70;0.30;;;9.10;99.90;;;;;;4952048;28;20891;-78
2020/12/24 02:09:09;;;;;;;0.60;0.30;;;9.50;99.90;;;;;;4954217;28;20398;-79
2020/12/24 02:11:37;;;;;;;0.70;0.40;;;9.00;99.90;;;;;;4972198;28;20400;-81
2020/12/24 02:14:03;;;;;;;0.73;0.40;;;9.70;99.90;;;;;;4972852;28;20419;-80
2020/12/24 02:16:28;;;;;;;2.42;0.47;;;9.90;99.90;;;;;;4972299;28;20385;-81
2020/12/24 02:18:54;;;;;;;1.40;0.40;;;10.60;99.90;;;;;;4973097;28;20393;-80
2020/12/24 02:21:20;;;;;;;1.20;0.50;;;9.50;99.90;;;;;;4973084;28;20385;-81
2020/12/24 02:23:45;;;;;;;0.80;0.60;;;8.80;99.90;;;;;;4972180;28;20450;-81
2020/12/24 02:26:11;;;;;;;0.60;0.30;;;9.20;99.90;;;;;;4972999;28;20388;-80
2020/12/24 02:28:37;;;;;;;0.68;0.40;;;8.80;99.90;;;;;;4972148;28;20384;-80
2020/12/24 02:31:04;;;;;;;0.90;0.40;;;10.00;99.90;;;;;;4972761;28;20399;-80
2020/12/24 02:33:29;;;;;;;1.08;0.40;;;9.00;99.90;;;;;;4971979;28;20423;-81
2020/12/24 02:35:55;;;;;;;1.40;0.50;;;10.30;99.90;;;;;;4972725;28;20841;-81
2020/12/24 02:38:21;;;;;;;0.40;0.40;;;9.70;99.90;;;;;;4972480;28;20388;-80
2020/12/24 02:40:47;;;;;;;1.40;0.40;;;9.80;99.90;;;;;;4971699;28;20458;-80
2020/12/24 02:43:13;;;;;;;1.38;0.40;;;10.40;99.90;;;;;;4972423;28;20407;-81
2020/12/24 02:45:38;;;;;;;1.73;0.50;;;9.30;99.90;;;;;;4971798;28;20388;-81
2020/12/24 02:48:05;;;;;;;2.40;0.40;;;9.00;99.90;;;;;;4987625;28;20392;-81
2020/12/24 02:50:30;;;;;;;1.10;0.40;;;9.30;99.90;;;;;;4971662;28;20520;-81
2020/12/24 02:52:56;;;;;;;1.70;0.40;;;9.80;99.90;;;;;;4972434;28;20408;-81
2020/12/24 02:55:22;;;;;;;2.10;0.80;;;9.50;99.90;;;;;;4972059;28;20395;-82
2020/12/24 02:57:47;;;;;;;1.80;0.50;;;10.10;99.90;;;;;;4971025;28;20380;-81
2020/12/24 03:00:14;;;;;;;1.13;0.47;;;9.70;99.90;;;;;;4972033;28;20423;-81
2020/12/24 03:02:40;;;;;;;1.67;0.70;;;10.00;99.90;;;;;;4954523;28;20950;-80
2020/12/24 03:05:06;;;;;;;1.30;0.60;;;9.60;99.90;;;;;;4972609;28;20384;-81
2020/12/24 03:07:32;;;;;;;0.77;0.50;;;10.10;99.90;;;;;;4970208;28;20408;-82
2020/12/24 03:09:58;;;;;;;2.83;0.90;;;9.90;99.90;;;;;;4966292;28;20390;-80
2020/12/24 03:12:27;;;;;;;3.75;0.68;;;9.90;99.90;;;;;;4953107;28;20483;-81
2020/12/24 03:14:53;;;;;;;2.58;0.50;;;10.10;99.90;;;;;;4954556;28;20402;-80
2020/12/24 03:17:20;;;;;;;1.00;0.40;;;10.30;99.90;;;;;;4955478;29;20389;-79
2020/12/24 03:19:45;;;;;;;0.85;0.30;;;9.70;99.90;;;;;;4952936;28;20386;-80
2020/12/24 03:22:11;;;;;;;2.50;0.40;;;9.50;99.90;;;;;;4953349;28;20397;-79
2020/12/24 03:24:37;;;;;;;1.42;0.45;;;10.20;99.90;;;;;;4952421;28;20394;-79
2020/12/24 03:27:03;;;;;;;1.30;0.50;;;10.10;99.90;;;;;;4952379;28;20752;-79
2020/12/24 03:29:29;;;;;;;0.80;0.40;;;10.30;99.90;;;;;;4953204;28;20732;-80
2020/12/24 03:31:54;;;;;;;0.40;0.30;;;9.80;99.90;;;;;;4952862;28;20480;-79
2020/12/24 03:34:20;;;;;;;4.22;0.60;;;9.80;99.90;;;;;;4952870;28;20421;-79
2020/12/24 03:36:46;;;;;;;1.40;0.60;;;10.50;99.90;;;;;;4952145;28;20391;-79
2020/12/24 03:39:11;;;;;;;0.60;0.30;;;10.60;99.90;;;;;;4952650;28;20410;-79
2020/12/24 03:41:37;;;;;;;2.63;0.60;;;10.00;99.90;;;;;;4951858;28;20461;-79
2020/12/24 03:44:02;;;;;;;1.20;0.77;;;10.70;99.90;;;;;;4952617;28;20404;-78
2020/12/24 03:46:28;;;;;;;0.55;0.38;;;9.60;99.90;;;;;;4952659;28;20396;-77
2020/12/24 03:48:54;;;;;;;2.05;0.50;;;9.90;99.90;;;;;;4952274;29;20394;-78
2020/12/24 03:51:20;;;;;;;1.20;0.40;;;10.00;99.90;;;;;;4952673;28;20382;-78
2020/12/24 03:53:45;;;;;;;4.05;1.00;;;9.70;99.70;;;;;;4951950;28;20417;-78
2020/12/24 03:56:12;;;;;;;1.10;0.50;;;10.20;99.70;;;;;;4953113;28;20405;-77
2020/12/24 03:58:38;;;;;;;1.10;0.50;;;10.30;99.90;;;;;;4951770;28;20394;-79
2020/12/24 04:01:05;;;;;;;0.97;0.40;;;10.90;99.90;;;;;;4952466;28;20485;-78
2020/12/24 04:03:30;;;;;;;1.80;0.40;;;10.90;99.90;;;;;;4952488;28;20898;-79
2020/12/24 04:05:56;;;;;;;2.80;0.70;;;10.50;99.90;;;;;;4951985;28;20390;-79
2020/12/24 04:08:22;;;;;;;0.60;0.50;;;9.80;99.70;;;;;;4955688;28;20435;-78
2020/12/24 04:10:47;;;;;;;1.70;0.60;;;10.50;99.20;;;;;;4960484;28;20485;-78
2020/12/24 04:13:13;;;;;;;1.30;0.50;;;11.10;99.90;;;;;;4955992;28;20432;-75
2020/12/24 04:15:38;;;;;;;1.97;0.67;;;10.50;98.20;;;;;;4955630;28;20426;-80
2020/12/24 04:18:04;;;;;;;1.00;0.40;;;10.20;97.70;;;;;;4955085;28;20537;-78
2020/12/24 04:20:30;;;;;;;0.77;0.40;;;10.40;99.90;;;;;;4956059;28;20512;-77
2020/12/24 04:22:55;;;;;;;1.40;0.50;;;10.40;97.90;;;;;;4955292;28;20408;-79
2020/12/24 04:25:21;;;;;;;1.08;0.40;;;11.00;98.90;;;;;;4956210;28;20808;-79
2020/12/24 04:27:46;;;;;;;2.20;0.50;;;10.60;99.90;;;;;;4955273;28;20388;-79
2020/12/24 04:30:12;;;;;;;3.10;0.70;;;10.30;97.50;;;;;;4956098;28;20378;-79
2020/12/24 04:32:38;;;;;;;0.80;0.35;;;10.20;99.00;;;;;;4955071;28;20515;-78
2020/12/24 04:35:03;;;;;;;0.98;0.40;;;10.50;99.40;;;;;;4956074;28;20445;-79
2020/12/24 04:37:29;;;;;;;1.23;0.50;;;10.40;97.30;;;;;;4955765;28;20436;-77
2020/12/24 04:39:55;;;;;;;2.38;1.08;;;10.20;96.80;;;;;;4954575;28;20406;-79
2020/12/24 04:42:22;;;;;;;2.80;0.50;;;10.50;99.90;;;;;;4955834;28;20414;-78
2020/12/24 04:44:51;;;;;;;1.90;0.70;;;10.30;96.20;;;;;;4954900;28;20394;-78
2020/12/24 04:47:18;;;;;;;1.50;0.60;;;10.90;95.60;;;;;;4955321;28;20688;-79
2020/12/24 04:49:43;;;;;;;0.90;0.50;;;10.80;95.40;;;;;;4954854;28;20437;-79
2020/12/24 04:52:12;;;;;;;1.80;0.60;;;10.50;95.70;;;;;;4955400;28;20781;-79
2020/12/24 04:54:38;;;;;;;1.60;0.60;;;10.00;95.80;;;;;;4955106;28;20484;-79
2020/12/24 04:57:08;;;;;;;2.60;0.55;;;10.00;99.70;;;;;;4955473;28;20920;-78
2020/12/24 04:59:34;;;;;;;1.90;0.70;;;9.60;99.90;;;;;;4955347;28;20543;-79
2020/12/24 05:02:01;;;;;;;1.30;0.30;;;10.00;99.30;;;;;;4955051;28;20386;-79
2020/12/24 05:04:28;;;;;;;1.40;0.45;;;10.90;96.90;;;;;;4955922;28;20480;-78
2020/12/24 05:07:01;;;;;;;4.30;0.75;;;10.70;97.70;;;;;;4954770;28;20401;-78
2020/12/24 05:09:27;;;;;;;1.80;0.40;;;10.10;99.90;;;;;;4955792;28;20400;-78
2020/12/24 05:11:52;;;;;;;2.50;0.50;;;10.90;99.90;;;;;;4955083;28;20405;-78
2020/12/24 05:14:22;;;;;;;1.57;0.80;;;9.90;95.20;;;;;;4955740;28;20469;-79
2020/12/24 05:17:02;;;;;;;0.80;0.60;;;9.90;94.10;;;;;;4955114;28;20401;-78
2020/12/24 05:19:30;;;;;;;1.80;0.52;;;9.80;93.50;;;;;;4955442;28;20941;-79
2020/12/24 05:21:57;;;;;;;1.70;0.50;;;10.50;99.00;;;;;;4953886;28;20384;-78
2020/12/24 05:24:28;;;;;;;1.23;0.50;;;9.80;93.90;;;;;;4955556;28;20406;-79
2020/12/24 05:27:09;;;;;;;1.45;0.40;;;10.10;92.60;;;;;;4954438;28;20390;-78
2020/12/24 05:29:46;;;;;;;1.77;0.50;;;9.70;92.30;;;;;;4955450;28;20397;-78
2020/12/24 05:32:11;;;;;;;2.40;0.60;;;9.80;97.50;;;;;;4955241;28;20382;-78
2020/12/24 05:34:38;;;;;;;1.90;0.50;;;9.90;97.70;;;;;;4954944;28;20452;-79
2020/12/24 05:37:16;;;;;;;0.95;0.40;;;9.90;94.20;;;;;;4954842;28;20385;-79
2020/12/24 05:39:47;;;;;;;0.73;0.30;;;10.00;93.50;;;;;;4954100;28;20442;-79
2020/12/24 05:42:13;;;;;;;1.40;0.68;;;10.30;95.80;;;;;;4954662;28;20402;-79
2020/12/24 05:44:39;;;;;;;4.63;1.13;;;11.20;94.80;;;;;;4954761;28;20967;-79
2020/12/24 05:47:05;;;;;;;1.00;0.40;;;10.10;93.90;;;;;;4955157;28;20390;-79
2020/12/24 05:49:33;;;;;;;3.92;0.60;;;9.90;94.20;;;;;;4954266;28;20898;-78
2020/12/24 05:52:01;;;;;;;1.30;0.80;;;10.00;98.20;;;;;;4961812;28;20977;-79
2020/12/24 05:54:29;;;;;;;1.00;0.55;;;9.70;98.80;;;;;;4972080;28;20507;-79
2020/12/24 05:56:57;;;;;;;0.77;0.43;;;9.80;94.50;;;;;;4960563;28;20485;-79
2020/12/24 05:59:24;;;;;;;1.23;0.55;;;10.10;95.40;;;;;;4970441;28;20455;-79
2020/12/24 06:02:06;;;;;;;0.80;0.40;;;10.30;95.40;;;;;;4973394;28;20420;-79
2020/12/24 06:04:46;;;;;;;1.67;0.90;;;9.90;94.90;;;;;;4974647;28;20399;-80
2020/12/24 06:07:28;;;;;;;1.45;0.50;;;10.10;97.20;;;;;;4974383;28;20407;-77
2020/12/24 06:09:54;;;;;;;1.00;0.50;;;9.80;94.20;;;;;;4967724;28;20449;-78
2020/12/24 06:12:22;;;;;;;2.60;0.50;;;9.80;97.70;;;;;;4986253;28;20420;-78
2020/12/24 06:14:49;;;;;;;0.93;0.40;;;9.80;95.40;;;;;;4972915;28;20760;-78
2020/12/24 06:17:17;;;;;;;2.03;0.40;;;11.00;95.40;;;;;;4973612;28;20477;-77
2020/12/24 06:19:43;;;;;;;0.50;0.40;;;10.80;94.10;;;;;;4972839;28;20392;-77
2020/12/24 06:22:09;;;;;;;2.53;0.60;;;10.10;93.50;;;;;;4973611;28;20463;-75
2020/12/24 06:24:41;;;;;;;1.40;0.40;;;10.90;93.20;;;;;;4973449;28;20392;-75
2020/12/24 06:27:11;;;;;;;1.23;0.40;;;9.80;92.00;;;;;;4973135;28;20420;-75
2020/12/24 06:29:41;;;;;;;1.85;0.43;;;10.50;94.00;;;;;;4973233;28;20483;-74
2020/12/24 06:32:08;;;;;;;4.32;1.05;;;10.00;95.20;;;;;;4972814;28;20392;-75
2020/12/24 06:34:39;;;;;;;2.00;0.70;;;10.00;92.90;;;;;;4973132;28;20392;-76
2020/12/24 06:37:16;;;;;;;3.08;0.50;;;10.40;93.20;;;;;;4972775;28;20470;-75
2020/12/24 06:39:46;;;;;;;1.10;0.50;;;10.20;96.90;;;;;;4972676;28;20404;-81
2020/12/24 06:42:39;;;;;;;2.80;0.65;;;9.90;92.70;;;;;;4973421;28;20562;-75
2020/12/24 06:45:21;;;;;;;0.90;0.50;;;9.90;91.20;;;;;;4972278;28;20486;-75
2020/12/24 06:48:15;;;;;;;1.20;0.50;;;9.90;90.90;;;;;;4972093;28;20475;-75
2020/12/24 06:50:43;;;;;;;2.60;0.63;;;9.90;90.70;;;;;;4972733;28;20392;-80
2020/12/24 06:53:27;;;;;;;2.70;0.45;;;9.90;94.30;;;;;;4972320;28;20951;-75
2020/12/24 06:56:15;;;;;;;0.90;0.50;;;9.90;90.90;;;;;;4953490;28;20398;-75
2020/12/24 06:58:45;;;;;;;1.48;0.50;;;9.80;94.40;;;;;;4960244;28;20392;-80
2020/12/24 07:01:35;;;;;;;1.95;0.43;;;10.10;93.90;;;;;;4973214;28;20392;-76
2020/12/24 07:04:03;;;;;;;4.10;0.60;;;9.90;92.50;;;;;;4952712;28;20432;-75
2020/12/24 07:06:45;;;;;;;1.60;0.60;;;10.60;96.50;;;;;;4953564;28;20418;-75
2020/12/24 07:09:20;;;;;;;1.50;0.60;;;9.80;90.90;;;;;;4953442;28;20489;-75
2020/12/24 07:11:50;;;;;;;1.30;0.60;;;9.90;91.50;;;;;;4952392;28;20492;-76
2020/12/24 07:14:30;;;;;;;1.05;0.60;;;9.80;92.50;;;;;;4953234;28;20480;-75
2020/12/24 07:16:57;;;;;;;3.13;0.70;;;9.80;95.30;;;;;;4952265;28;20852;-76
2020/12/24 07:19:24;;;;;;;1.08;0.50;;;10.50;97.40;;;;;;4951920;29;20477;-74
2020/12/24 07:21:51;;;;;;;1.40;0.50;;;10.00;92.70;;;;;;4952308;28;20386;-76
2020/12/24 07:24:29;;;;;;;2.58;0.85;;;10.20;92.50;;;;;;4953035;28;20795;-75
2020/12/24 07:26:57;;;;;;;2.47;0.70;;;9.70;93.90;;;;;;4952256;28;20389;-76
2020/12/24 07:29:24;;;;;;;2.55;0.60;;;9.90;92.70;;;;;;4952675;28;20896;-75
2020/12/24 07:31:54;;;;;;;1.30;0.50;;;10.20;92.50;;;;;;4952195;28;20832;-75
2020/12/24 07:34:28;;;;;;;0.80;0.60;;;9.90;94.50;;;;;;4953080;28;20421;-74
2020/12/24 07:36:54;;;;;;;1.15;0.60;;;10.50;96.10;;;;;;4952242;28;20747;-74
2020/12/24 07:39:20;;;;;;;2.60;0.60;;;11.20;96.80;;;;;;4952849;28;20417;-76
2020/12/24 07:41:47;;;;;;;1.58;0.60;;;10.20;97.70;;;;;;4952218;28;20413;-80
2020/12/24 07:44:14;;;;;;;0.52;0.40;;;9.50;94.20;;;;;;4950844;28;20434;-74
2020/12/24 07:46:40;;;;;;;2.50;0.90;;;9.40;96.00;;;;;;4952765;28;20426;-74
2020/12/24 07:49:06;;;;;;;1.80;0.90;;;9.40;96.40;;;;;;4951767;28;20409;-74
2020/12/24 07:51:32;;;;;;;1.58;0.75;;;9.40;94.70;;;;;;4952745;28;20426;-74
2020/12/24 07:54:25;;;;;;;0.88;0.60;;;9.70;95.30;;;;;;4953552;28;20410;-74
2020/12/24 07:56:52;;;;;;;0.90;0.50;;;9.90;99.90;;;;;;4970462;28;20458;-76
2020/12/24 07:59:19;;;;;;;2.05;0.60;;;9.20;94.50;;;;;;4971893;28;20392;-75
2020/12/24 08:01:45;;;;;;;1.10;0.40;;;9.80;94.10;;;;;;4968958;28;20948;-81
2020/12/24 08:04:11;;;;;;;1.60;0.40;;;9.50;93.70;;;;;;4963825;28;20476;-75
2020/12/24 08:06:37;;;;;;;1.00;0.60;;;9.30;97.70;;;;;;4961906;28;20427;-72
2020/12/24 08:09:13;;;;;;;0.93;0.50;;;9.90;93.40;;;;;;4954889;28;20393;-73
2020/12/24 08:11:40;;;;;;;2.20;0.57;;;9.60;93.00;;;;;;4964066;28;20946;-74
2020/12/24 08:14:06;;;;;;;1.30;0.30;;;9.50;92.80;;;;;;4951437;28;20917;-74
2020/12/24 08:16:39;;;;;;;2.45;0.50;;;10.20;92.40;;;;;;4952601;29;20398;-75
2020/12/24 08:20:03;;;;;;;1.20;0.40;;;9.40;92.30;;;;;;4952386;29;20771;-74
2020/12/24 08:22:56;;;;;;;0.50;0.30;;;9.30;91.60;;;;;;4915029;29;20404;-72
2020/12/24 08:25:23;;;;;;;1.60;0.50;;;9.20;92.90;;;;;;4930939;29;20738;-75
2020/12/24 08:27:48;;;;;;;1.80;0.50;;;9.30;96.60;;;;;;4944724;28;20483;-82
2020/12/24 08:30:15;;;;;;;3.80;0.70;;;9.70;93.70;;;;;;4958396;28;20394;-73
2020/12/24 08:32:42;;;;;;;1.95;0.60;;;9.10;94.00;;;;;;4971688;28;20408;-74
2020/12/24 08:35:11;;;;;;;1.85;0.50;;;9.60;95.20;;;;;;4970727;28;20451;-74
2020/12/24 08:37:37;;;;;;;1.05;0.47;;;9.00;93.80;;;;;;4971831;28;20420;-74
2020/12/24 08:40:22;;;;;;;1.95;0.50;;;8.90;95.60;;;;;;4970235;28;20499;-74
2020/12/24 08:42:48;;;;;;;0.60;0.40;;;9.00;95.10;;;;;;4971486;28;20412;-81
2020/12/24 08:45:14;;;;;;;2.47;0.60;;;9.30;97.20;;;;;;4970903;28;20392;-74
2020/12/24 08:47:41;;;;;;;1.10;0.50;;;9.50;99.00;;;;;;4971509;28;20465;-74
2020/12/24 08:50:07;;;;;;;1.00;0.40;;;9.60;99.90;;;;;;4970806;28;20384;-71
2020/12/24 08:52:38;;;;;;;1.70;0.73;;;8.50;99.90;;;;;;4971342;28;20423;-72
2020/12/24 08:55:06;;;;;;;1.92;0.60;;;8.50;99.40;;;;;;4970632;28;20393;-74
2020/12/24 08:57:33;;;;;;;1.35;0.57;;;9.10;99.90;;;;;;4974876;28;20479;-72
2020/12/24 09:00:00;;;;;;;2.10;0.60;;;9.40;99.90;;;;;;4970940;28;20377;-73
2020/12/24 09:02:27;;;;;;;1.40;0.50;;;9.20;99.90;;;;;;4965741;28;21668;-73
2020/12/24 09:04:55;;;;;;;1.90;0.50;;;9.70;97.90;;;;;;4972938;28;20415;-74
2020/12/24 09:07:31;;;;;;;1.95;0.95;;;9.30;98.10;;;;;;4974875;28;20392;-73
2020/12/24 09:10:13;;;;;;;1.70;0.60;;;10.30;97.40;;;;;;4974013;28;20388;-74
2020/12/24 09:12:43;;;;;;;4.60;0.63;;;9.00;95.80;;;;;;4974810;28;20905;-75
2020/12/24 09:15:11;;;;;;;2.87;0.80;;;9.80;99.40;;;;;;4965222;28;20426;-76
2020/12/24 09:17:48;;;;;;;1.10;0.60;;;9.50;98.10;;;;;;4954733;28;20449;-75
2020/12/24 09:20:19;;;;;;;2.15;0.52;;;9.40;99.90;;;;;;4953038;28;20398;-77
2020/12/24 09:22:53;;;;;;;1.60;0.50;;;9.00;98.80;;;;;;4954660;28;20394;-76
2020/12/24 09:25:30;;;;;;;2.97;0.65;;;10.00;97.40;;;;;;4954805;28;20390;-78
2020/12/24 09:27:56;;;;;;;1.20;0.50;;;9.00;95.50;;;;;;4954009;28;20417;-79
2020/12/24 09:30:23;;;;;;;0.70;0.40;;;9.00;97.90;;;;;;4954577;28;20398;-81
2020/12/24 09:32:59;;;;;;;1.35;0.57;;;10.10;99.90;;;;;;4955134;28;20795;-84
2020/12/24 09:35:26;;;;;;;2.20;0.60;;;9.30;95.90;;;;;;4954022;28;20830;-87
2020/12/24 09:37:56;;;;;;;2.20;0.50;;;9.20;97.60;;;;;;4955532;28;20402;-81
2020/12/24 09:40:23;;;;;;;1.80;0.40;;;9.20;98.00;;;;;;4954764;28;20414;-85
2020/12/24 09:42:49;;;;;;;0.60;0.50;;;9.50;97.80;;;;;;4955163;28;20402;-83
2020/12/24 09:45:15;;;;;;;2.10;0.40;;;9.40;97.70;;;;;;4959173;28;20394;-84
2020/12/24 09:47:44;;;;;;;2.15;0.70;;;9.80;98.70;;;;;;4962651;28;20489;-80
2020/12/24 09:50:09;;;;;;;0.95;0.40;;;9.10;98.80;;;;;;4955830;28;20391;-82
2020/12/24 09:52:35;;;;;;;1.83;0.70;;;9.10;99.90;;;;;;4955144;28;20747;-80
2020/12/24 09:55:01;;;;;;;0.50;0.40;;;9.10;97.60;;;;;;4954073;28;20401;-80
2020/12/24 09:57:26;;;;;;;0.87;0.50;;;9.40;98.00;;;;;;4954701;28;20382;-79
2020/12/24 09:59:53;;;;;;;2.13;0.80;;;9.30;99.90;;;;;;4954478;28;20517;-83
2020/12/24 10:02:19;;;;;;;0.75;0.47;;;9.90;98.50;;;;;;4954326;28;20396;-77
2020/12/24 10:04:45;;;;;;;1.17;0.47;;;9.40;97.00;;;;;;4954600;28;20390;-78
2020/12/24 10:07:10;;;;;;;2.50;0.60;;;10.10;96.80;;;;;;4953504;28;20394;-77
2020/12/24 10:09:36;;;;;;;1.60;0.50;;;9.70;99.50;;;;;;4957584;28;20857;-77
2020/12/24 10:12:02;;;;;;;0.60;0.40;;;10.80;99.90;;;;;;4971769;28;20401;-76
2020/12/24 10:14:28;;;;;;;1.35;0.65;;;9.50;97.20;;;;;;4973348;28;20889;-76
2020/12/24 10:16:53;;;;;;;2.30;0.70;;;9.70;97.10;;;;;;4972050;28;20481;-78
2020/12/24 10:19:19;;;;;;;1.40;0.40;;;11.00;99.90;;;;;;4973260;28;20447;-74
2020/12/24 10:21:44;;;;;;;0.60;0.50;;;9.60;97.30;;;;;;4972254;28;20464;-77
2020/12/24 10:24:10;;;;;;;1.27;0.40;;;10.70;97.10;;;;;;4972923;28;20433;-76
2020/12/24 10:26:39;;;;;;;2.20;0.80;;;8.90;99.90;;;;;;4973151;28;20503;-76
2020/12/24 10:29:05;;;;;;;2.70;0.52;;;9.50;97.30;;;;;;4971288;28;20436;-77
2020/12/24 10:31:31;;;;;;;0.60;0.40;;;9.50;97.30;;;;;;4971969;28;20492;-78
2020/12/24 10:33:57;;;;;;;2.10;0.70;;;10.00;99.90;;;;;;4972680;28;20422;-76
2020/12/24 10:36:23;;;;;;;3.97;0.77;;;9.60;99.90;;;;;;4973053;28;20391;-77
2020/12/24 10:38:49;;;;;;;1.30;0.50;;;9.00;96.90;;;;;;4973256;28;20400;-77
2020/12/24 10:41:16;;;;;;;3.00;0.70;;;9.70;97.40;;;;;;4972364;28;20548;-78
2020/12/24 10:43:42;;;;;;;1.13;0.50;;;9.40;97.20;;;;;;4973161;28;20396;-79
2020/12/24 10:46:08;;;;;;;0.90;0.90;;;9.20;97.20;;;;;;4971909;28;20456;-77
2020/12/24 10:48:34;;;;;;;2.47;0.77;;;9.90;99.10;;;;;;4973036;28;20385;-78
2020/12/24 10:50:59;;;;;;;1.63;0.40;;;10.30;99.90;;;;;;4972179;28;20439;-79
2020/12/24 10:53:25;;;;;;;1.60;0.60;;;9.70;97.20;;;;;;4973190;28;20426;-78
2020/12/24 10:55:51;;;;;;;1.37;0.50;;;10.50;97.20;;;;;;4973015;28;20487;-78
2020/12/24 10:58:16;;;;;;;1.03;0.53;;;9.80;99.90;;;;;;4972014;28;21109;-78
2020/12/24 11:00:42;;;;;;;0.80;0.40;;;9.00;97.20;;;;;;4971512;28;20388;-76
2020/12/24 11:03:08;;;;;;;0.80;0.50;;;9.80;97.50;;;;;;4972038;28;20734;-77
2020/12/24 11:05:35;;;;;;;0.57;0.40;;;10.70;99.90;;;;;;4972319;28;20869;-79
2020/12/24 11:08:01;;;;;;;1.10;0.30;;;9.40;97.60;;;;;;4972118;28;20719;-80
2020/12/24 11:10:27;;;;;;;1.90;0.93;;;9.60;99.90;;;;;;4972393;28;20411;-79
2020/12/24 11:12:53;;;;;;;1.80;0.60;;;9.80;97.50;;;;;;4972325;28;20427;-78
2020/12/24 11:15:18;;;;;;;0.70;0.30;;;9.30;97.30;;;;;;4971686;28;20392;-79
2020/12/24 11:17:44;;;;;;;0.82;0.30;;;9.10;99.10;;;;;;4972687;28;20484;-77
2020/12/24 11:20:10;;;;;;;2.53;0.57;;;9.40;99.30;;;;;;4967333;28;20390;-77
2020/12/24 11:22:36;;;;;;;0.80;0.50;;;8.90;96.90;;;;;;4961456;28;20408;-78
2020/12/24 11:25:02;;;;;;;1.40;0.50;;;9.20;97.70;;;;;;4961503;28;20945;-78
2020/12/24 11:27:28;;;;;;;0.60;0.47;;;9.60;99.90;;;;;;4960456;28;20436;-77
2020/12/24 11:29:53;;;;;;;1.50;0.53;;;10.30;99.90;;;;;;4962961;28;20378;-78
2020/12/24 11:32:19;;;;;;;1.23;0.50;;;9.00;98.00;;;;;;4958605;28;20385;-77
2020/12/24 11:34:44;;;;;;;1.40;0.50;;;9.90;99.50;;;;;;4960540;28;20402;-77
2020/12/24 11:37:10;;;;;;;0.60;0.40;;;9.30;99.90;;;;;;4960802;28;20380;-78
2020/12/24 11:39:36;;;;;;;1.60;0.50;;;9.60;98.70;;;;;;4960459;28;20529;-78
2020/12/24 11:42:01;;;;;;;1.20;0.70;;;10.20;99.90;;;;;;4952119;28;20390;-81
2020/12/24 11:44:27;;;;;;;0.60;0.40;;;10.50;99.30;;;;;;4952766;28;20398;-79
2020/12/24 11:46:52;;;;;;;0.60;0.40;;;9.60;99.00;;;;;;4963420;28;20757;-79
2020/12/24 11:49:18;;;;;;;1.30;0.50;;;9.40;99.90;;;;;;4967236;28;20760;-79
2020/12/24 11:51:44;;;;;;;2.20;0.60;;;8.90;99.90;;;;;;4951245;28;20485;-81
2020/12/24 11:54:09;;;;;;;1.47;0.60;;;9.20;98.80;;;;;;4951569;28;20414;-79
2020/12/24 11:56:35;;;;;;;2.20;0.90;;;9.70;99.90;;;;;;4952612;28;20473;-83
2020/12/24 11:59:00;;;;;;;1.60;0.30;;;8.90;98.80;;;;;;4954685;28;20396;-80
2020/12/24 12:01:26;;;;;;;2.60;0.70;;;8.90;99.10;;;;;;4961219;28;20407;-78
2020/12/24 12:03:52;;;;;;;1.07;0.70;;;9.50;99.90;;;;;;4962348;28;20413;-81
2020/12/24 12:06:19;;;;;;;0.80;0.60;;;9.10;99.90;;;;;;4959511;28;20381;-79
2020/12/24 12:08:46;;;;;;;1.10;0.80;;;9.40;99.90;;;;;;4978139;28;20441;-79
2020/12/24 12:11:12;;;;;;;0.70;0.50;;;9.20;99.90;;;;;;4959293;28;20491;-80
2020/12/24 12:13:38;;;;;;;1.70;0.40;;;9.20;98.90;;;;;;4961833;28;20849;-81
2020/12/24 12:16:08;;;;;;;0.57;0.40;;;8.90;99.00;;;;;;4962673;28;20392;-81
2020/12/24 12:18:37;;;;;;;1.00;0.70;;;9.30;98.70;;;;;;4963056;28;20400;-81
2020/12/24 12:21:06;;;;;;;0.80;0.50;;;9.30;99.10;;;;;;4958526;28;20487;-80
2020/12/24 12:23:33;;;;;;;1.58;0.60;;;9.10;99.40;;;;;;4960179;28;20437;-77
2020/12/24 12:26:01;;;;;;;1.30;0.70;;;10.70;99.50;;;;;;4957499;28;20416;-78
2020/12/24 12:28:27;;;;;;;1.50;0.30;;;9.00;99.40;;;;;;4959466;28;20421;-78
2020/12/24 12:30:53;;;;;;;1.50;0.50;;;8.90;98.90;;;;;;4961924;28;20474;-79
2020/12/24 12:33:18;;;;;;;1.50;0.40;;;9.80;99.20;;;;;;4960890;28;20887;-83
2020/12/24 12:35:44;;;;;;;0.60;0.40;;;9.40;99.90;;;;;;4961425;28;20397;-78
2020/12/24 12:38:10;;;;;;;0.60;0.40;;;;;;;;;;4964605;28;20414;-81
2020/12/24 12:40:36;;;;;;;2.60;0.70;;;9.10;97.60;;;;;;4959534;28;20413;-80
2020/12/24 12:43:02;;;;;;;0.80;0.70;;;8.80;99.90;;;;;;4954257;28;20410;-81
2020/12/24 12:45:27;;;;;;;1.40;0.60;;;9.70;99.90;;;;;;4957858;28;20853;-80
2020/12/24 12:47:53;;;;;;;1.00;0.50;;;8.60;99.80;;;;;;4955899;29;20441;-80
2020/12/24 12:50:18;;;;;;;0.70;0.40;;;9.10;99.90;;;;;;4953954;29;20390;-81
2020/12/24 12:52:44;;;;;;;1.20;0.40;;;9.20;99.90;;;;;;4956116;29;20496;-80
2020/12/24 12:55:10;;;;;;;1.30;0.50;;;9.00;99.90;;;;;;4955068;29;20506;-81